Roosevelt, New York
Current Conditions -  °F | °C
As of 2:13 AM on Wednesday 22 Oct 2014 (Local Time) from KFRG Reporting Station
Overcast Overcast  
Wind Chill: 58°   Ceiling: 1800
Heat Index: 58°   Visibility: 10mi
Dew Point: 55°   Wind: 9mph
Humidity: 90%   Direction: 30°NNE
Pressure: 29.88"   Gusts: NA
Location:  40.68°N, 73.59°W
Report Text: KFRG 220613Z AUTO 03008KT 10SM SCT014 BKN018 OVC043 14/13 A2988 RMK AO2 LTG DSNT SW RAE05 P0001 T01440128
Loading
Personal Weather Stations






























Interactive Weather Map
Tropical Storm Tracking
New forecast layout! Learn more

10-Day Weather Forecast

Advertisements
Track Severe Weather on mobile